createdAt,value
2024-01-24T00:04:23.796Z,2.33
2024-01-24T00:09:28.279Z,2.31
2024-01-24T00:14:34.123Z,2.30
2024-01-24T00:19:39.781Z,2.27
2024-01-24T00:24:45.402Z,2.26
2024-01-24T00:29:51.316Z,2.24
2024-01-24T00:34:57.127Z,2.22
2024-01-24T00:40:04.057Z,2.19
2024-01-24T00:45:10.920Z,2.18
2024-01-24T00:50:16.665Z,2.16
2024-01-24T00:55:22.303Z,2.14
2024-01-24T01:00:28.080Z,2.12
2024-01-24T01:05:33.744Z,2.11
2024-01-24T01:10:39.410Z,2.11
2024-01-24T01:15:45.551Z,2.10
2024-01-24T01:20:51.183Z,2.09
2024-01-24T01:25:57.119Z,2.09
2024-01-24T01:31:02.800Z,2.08
2024-01-24T01:36:17.738Z,2.09
2024-01-24T01:41:28.751Z,2.09
2024-01-24T01:46:34.944Z,2.09
2024-01-24T01:51:41.280Z,2.11
2024-01-24T01:56:47.045Z,2.13
2024-01-24T02:01:54.699Z,2.14
2024-01-24T02:07:02.262Z,2.16
2024-01-24T02:12:08.627Z,2.19
2024-01-24T02:17:14.266Z,2.21
2024-01-24T02:22:20.083Z,2.23
2024-01-24T02:27:25.705Z,2.24
2024-01-24T02:32:31.404Z,2.26
2024-01-24T02:37:37.055Z,2.29
2024-01-24T02:42:42.684Z,2.31
2024-01-24T02:47:48.385Z,2.31
2024-01-24T02:52:54.073Z,2.30
2024-01-24T02:57:59.747Z,2.29
2024-01-24T03:03:05.610Z,2.27
2024-01-24T03:08:13.099Z,2.26
2024-01-24T03:13:19.623Z,2.26
2024-01-24T03:18:25.436Z,2.26
2024-01-24T03:23:31.633Z,2.27
2024-01-24T03:28:37.501Z,2.28
2024-01-24T03:33:43.689Z,2.28
2024-01-24T03:38:48.220Z,2.28
2024-01-24T03:43:53.846Z,2.29
2024-01-24T03:48:59.816Z,2.28
2024-01-24T03:54:06.097Z,2.31
2024-01-24T03:59:11.736Z,2.31
2024-01-24T04:04:17.697Z,2.33
2024-01-24T04:09:23.543Z,2.34
2024-01-24T04:14:29.232Z,2.34
2024-01-24T04:19:35.027Z,2.36
2024-01-24T04:24:40.837Z,2.38
2024-01-24T05:09:25.152Z,2.79
2024-01-24T05:14:30.754Z,2.84
2024-01-24T05:19:36.820Z,2.79
2024-01-24T05:24:44.989Z,2.75
2024-01-24T05:29:50.700Z,2.72
2024-01-24T05:34:56.540Z,2.70
2024-01-24T05:40:02.388Z,2.70
2024-01-24T05:45:09.587Z,2.70
2024-01-24T05:50:15.937Z,2.72
2024-01-24T05:55:21.816Z,2.72
2024-01-24T06:00:27.637Z,2.71
2024-01-24T06:05:34.363Z,2.72
2024-01-24T06:10:38.578Z,2.74
2024-01-24T06:15:44.344Z,2.77
2024-01-24T06:20:50.104Z,2.78
2024-01-24T06:25:56.084Z,2.80
2024-01-24T06:31:02.849Z,2.82
2024-01-24T06:36:07.314Z,2.84
2024-01-24T06:41:14.149Z,2.86
2024-01-24T06:46:19.763Z,2.87
2024-01-24T06:51:25.550Z,2.91
2024-01-24T06:56:31.944Z,2.93
2024-01-24T07:01:37.648Z,2.95
2024-01-24T07:06:44.197Z,2.98
2024-01-24T07:11:50.507Z,3.02
2024-01-24T07:16:56.143Z,3.05
2024-01-24T07:22:04.057Z,3.09
2024-01-24T07:27:10.704Z,3.11
2024-01-24T07:32:16.639Z,3.13
2024-01-24T07:37:22.262Z,3.13
2024-01-24T07:42:28.001Z,3.15
2024-01-24T07:47:33.840Z,3.17
2024-01-24T07:52:42.456Z,3.21
2024-01-24T07:57:49.815Z,3.26
2024-01-24T08:02:55.674Z,3.30
2024-01-24T08:08:02.866Z,3.35
2024-01-24T08:13:11.761Z,3.39
2024-01-24T08:18:18.115Z,3.43
2024-01-24T08:23:31.719Z,3.47
2024-01-24T08:28:45.076Z,3.52
2024-01-24T08:33:52.531Z,3.58
2024-01-24T08:38:58.591Z,3.64
2024-01-24T08:44:05.966Z,3.69
2024-01-24T08:49:14.026Z,3.73
2024-01-24T08:54:21.178Z,3.80
2024-01-24T08:59:27.118Z,3.84
2024-01-24T09:04:33.494Z,3.90
2024-01-24T09:09:42.151Z,3.94
2024-01-24T09:14:49.218Z,3.99
2024-01-24T09:19:55.129Z,4.02
2024-01-24T09:25:02.271Z,4.07
2024-01-24T09:30:11.586Z,4.12
2024-01-24T09:35:17.756Z,4.18
2024-01-24T09:40:23.999Z,4.24
2024-01-24T09:45:32.831Z,4.29
2024-01-24T09:50:39.881Z,4.36
2024-01-24T09:55:47.098Z,4.41
2024-01-24T10:00:53.799Z,4.44
2024-01-24T10:06:00.442Z,4.48
2024-01-24T10:11:06.460Z,4.53
2024-01-24T10:16:12.081Z,4.57
2024-01-24T10:21:18.547Z,4.62
2024-01-24T10:26:22.889Z,4.69
2024-01-24T10:31:28.937Z,4.75
2024-01-24T10:36:37.853Z,4.82
2024-01-24T10:41:50.495Z,4.90
2024-01-24T10:46:57.552Z,4.97
2024-01-24T10:52:04.004Z,5.04
2024-01-24T10:57:13.891Z,5.11
2024-01-24T11:02:19.943Z,5.17
2024-01-24T11:07:31.533Z,5.29
2024-01-24T11:12:37.317Z,5.56
2024-01-24T11:17:46.533Z,5.86
2024-01-24T11:22:52.306Z,6.05
2024-01-24T11:28:01.081Z,6.19
2024-01-24T11:33:07.885Z,6.43
2024-01-24T11:38:37.137Z,6.75
2024-01-24T11:43:46.373Z,7.06
2024-01-24T11:48:52.288Z,7.19
2024-01-24T11:54:04.746Z,7.21
2024-01-24T11:59:10.404Z,7.25
2024-01-24T12:04:16.559Z,7.20
2024-01-24T12:09:24.445Z,7.14
2024-01-24T12:14:30.414Z,7.09
2024-01-24T12:19:37.920Z,7.12
2024-01-24T12:24:44.701Z,7.33
2024-01-24T12:29:54.907Z,7.56
2024-01-24T12:35:04.160Z,7.64
2024-01-24T12:40:13.756Z,7.69
2024-01-24T12:45:19.705Z,7.67
2024-01-24T12:50:26.576Z,7.74
2024-01-24T12:55:32.538Z,7.73
2024-01-24T13:00:38.449Z,7.69
2024-01-24T13:05:47.391Z,7.60
2024-01-24T13:10:57.313Z,7.56
2024-01-24T13:16:04.433Z,7.50
2024-01-24T13:21:10.034Z,7.42
2024-01-24T13:26:15.733Z,7.35
2024-01-24T13:31:21.568Z,7.31
2024-01-24T13:36:27.443Z,7.26
2024-01-24T13:41:33.382Z,7.23
2024-01-24T13:46:39.297Z,7.20
2024-01-24T13:51:45.997Z,7.16
2024-01-24T13:56:51.852Z,7.10
2024-01-24T14:02:00.665Z,7.01
2024-01-24T14:07:08.172Z,6.92
2024-01-24T14:12:13.917Z,6.83
2024-01-24T14:17:19.583Z,6.77
2024-01-24T14:22:26.300Z,6.71
2024-01-24T14:27:32.039Z,6.66
2024-01-24T14:32:39.617Z,6.61
2024-01-24T14:37:45.864Z,6.60
2024-01-24T14:42:51.746Z,6.59
2024-01-24T14:47:57.741Z,6.57
2024-01-24T14:53:03.405Z,6.55
2024-01-24T14:58:09.342Z,6.53
2024-01-24T15:03:15.142Z,6.51
2024-01-24T15:08:23.326Z,6.50
2024-01-24T15:13:30.292Z,6.50
2024-01-24T15:18:36.459Z,6.51
2024-01-24T15:23:42.201Z,6.49
2024-01-24T15:28:47.910Z,6.48
2024-01-24T15:33:54.222Z,6.46
2024-01-24T15:38:58.790Z,6.45
2024-01-24T15:44:04.749Z,6.45
2024-01-24T15:49:10.536Z,6.45
2024-01-24T15:54:16.259Z,6.47
2024-01-24T15:59:22.484Z,6.46
2024-01-24T16:04:28.650Z,6.45
2024-01-24T16:09:34.841Z,6.42
2024-01-24T16:14:41.505Z,6.39
2024-01-24T16:19:48.147Z,6.35
2024-01-24T16:24:52.711Z,6.32
2024-01-24T16:29:59.126Z,6.30
2024-01-24T16:35:06.364Z,6.25
2024-01-24T16:40:14.293Z,6.19
2024-01-24T16:45:20.226Z,6.16
2024-01-24T16:50:25.920Z,6.15
2024-01-24T16:55:32.382Z,6.18
2024-01-24T17:00:36.506Z,6.21
2024-01-24T17:05:42.652Z,6.21
2024-01-24T17:10:48.606Z,6.18
2024-01-24T17:15:55.004Z,6.13
2024-01-24T17:21:00.929Z,6.09
2024-01-24T17:26:06.714Z,6.08
2024-01-24T17:31:14.401Z,6.09
2024-01-24T17:36:20.029Z,6.12
2024-01-24T17:41:26.989Z,6.13
2024-01-24T17:46:33.013Z,6.15
2024-01-24T17:51:39.181Z,6.17
2024-01-24T17:56:44.868Z,6.17
2024-01-24T18:01:52.796Z,6.18
2024-01-24T18:06:58.829Z,6.18
2024-01-24T18:12:04.722Z,6.18
2024-01-24T18:17:10.327Z,6.19
2024-01-24T18:22:16.691Z,6.21
2024-01-24T18:27:21.123Z,6.22
2024-01-24T18:32:26.770Z,6.23
2024-01-24T18:37:32.985Z,6.23
2024-01-24T18:42:40.907Z,6.23
2024-01-24T18:47:48.641Z,6.24
2024-01-24T18:52:54.537Z,6.24
2024-01-24T18:58:00.631Z,6.25
2024-01-24T19:03:07.706Z,6.25
2024-01-24T19:08:14.565Z,6.25
2024-01-24T19:13:24.899Z,6.26
2024-01-24T19:18:31.108Z,6.28
2024-01-24T19:23:36.884Z,6.29
2024-01-24T19:28:42.993Z,6.31
2024-01-24T19:33:52.038Z,6.34
2024-01-24T19:38:59.762Z,6.38
2024-01-24T19:44:05.866Z,6.44
2024-01-24T19:49:13.650Z,6.47
2024-01-24T19:54:21.165Z,6.50
2024-01-24T19:59:27.140Z,6.52
2024-01-24T20:04:36.687Z,6.53
2024-01-24T20:09:45.156Z,6.57
2024-01-24T20:14:51.112Z,6.60
2024-01-24T20:19:56.785Z,6.60
2024-01-24T20:25:02.479Z,6.58
2024-01-24T20:30:09.636Z,6.57
2024-01-24T20:35:15.945Z,6.56
2024-01-24T20:40:21.815Z,6.52
2024-01-24T20:45:28.014Z,6.50
2024-01-24T20:50:33.875Z,6.49
2024-01-24T20:55:39.517Z,6.48
2024-01-24T21:00:45.288Z,6.48
2024-01-24T21:05:51.916Z,6.50
2024-01-24T21:11:03.657Z,6.52
2024-01-24T21:16:11.020Z,6.55
2024-01-24T21:21:15.110Z,6.57
2024-01-24T21:26:20.792Z,6.60
2024-01-24T21:31:32.591Z,6.62
2024-01-24T21:36:47.615Z,6.65
2024-01-24T21:41:55.405Z,6.68
2024-01-24T21:47:05.521Z,6.70
2024-01-24T21:52:11.794Z,6.70
2024-01-24T21:57:17.424Z,6.70
2024-01-24T22:02:23.112Z,6.68
2024-01-24T22:07:29.010Z,6.66
2024-01-24T22:12:34.958Z,6.61
2024-01-24T22:17:42.251Z,6.57
2024-01-24T22:22:48.066Z,6.56
2024-01-24T22:27:53.916Z,6.55
2024-01-24T22:32:59.862Z,6.50
2024-01-24T22:38:05.648Z,6.40
2024-01-24T22:43:11.751Z,6.33
2024-01-24T22:48:18.894Z,6.27
2024-01-24T22:53:24.888Z,6.21
2024-01-24T22:58:30.833Z,6.16
2024-01-24T23:03:36.656Z,6.12
2024-01-24T23:08:42.810Z,6.10
2024-01-24T23:13:48.706Z,6.10
2024-01-24T23:18:55.661Z,6.09
2024-01-24T23:24:02.360Z,6.09
2024-01-24T23:29:06.692Z,6.07
2024-01-24T23:34:13.554Z,6.07
2024-01-24T23:39:19.288Z,6.08
2024-01-24T23:44:25.101Z,6.11
2024-01-24T23:49:31.043Z,6.14
2024-01-24T23:54:36.851Z,6.16
2024-01-24T23:59:42.627Z,6.17
